createdAt,value
2022-12-18T00:00:01.857Z,3.90
2022-12-18T00:01:02.464Z,4.90
2022-12-18T00:02:02.337Z,4.70
2022-12-18T00:03:01.552Z,4.60
2022-12-18T00:04:04.084Z,3.30
2022-12-18T00:05:01.858Z,5.00
2022-12-18T00:06:02.440Z,3.80
2022-12-18T00:07:01.504Z,3.80
2022-12-18T00:08:02.291Z,3.10
2022-12-18T00:09:02.992Z,4.30
2022-12-18T00:10:01.465Z,4.20
2022-12-18T00:11:04.814Z,4.80
2022-12-18T00:13:03.908Z,4.30
2022-12-18T00:14:02.121Z,4.90
2022-12-18T00:15:01.465Z,4.50
2022-12-18T00:16:03.311Z,5.50
2022-12-18T00:17:01.448Z,4.00
2022-12-18T00:18:01.484Z,4.90
2022-12-18T00:19:02.021Z,4.10
2022-12-18T00:20:02.311Z,3.73
2022-12-18T00:21:03.697Z,5.40
2022-12-18T00:22:01.786Z,4.87
2022-12-18T00:23:01.861Z,4.83
2022-12-18T00:24:02.527Z,5.47
2022-12-18T00:25:02.078Z,5.50
2022-12-18T00:26:03.515Z,4.13
2022-12-18T00:27:01.810Z,6.00
2022-12-18T00:28:02.301Z,4.83
2022-12-18T00:29:03.825Z,5.00
2022-12-18T00:30:01.493Z,5.57
2022-12-18T00:31:02.605Z,5.80
2022-12-18T00:32:01.576Z,5.63
2022-12-18T00:33:01.479Z,4.73
2022-12-18T00:34:01.838Z,4.73
2022-12-18T00:35:02.327Z,5.23
2022-12-18T00:36:01.760Z,6.20
2022-12-18T00:37:01.796Z,4.00
2022-12-18T00:38:01.803Z,5.40
2022-12-18T00:39:04.056Z,2.00
2022-12-18T00:40:01.990Z,5.73
2022-12-18T00:41:02.069Z,5.40
2022-12-18T00:42:01.456Z,6.00
2022-12-18T00:43:01.475Z,4.80
2022-12-18T00:44:02.725Z,5.50
2022-12-18T00:45:01.801Z,6.10
2022-12-18T00:46:01.951Z,6.20
2022-12-18T00:47:01.458Z,4.40
2022-12-18T00:48:01.559Z,5.60
2022-12-18T00:49:02.840Z,6.00
2022-12-18T00:50:01.846Z,5.00
2022-12-18T00:51:01.786Z,6.70
2022-12-18T00:52:01.459Z,6.00
2022-12-18T00:53:01.800Z,5.80
2022-12-18T00:54:01.849Z,6.50
2022-12-18T00:55:06.260Z,5.00
2022-12-18T00:56:01.795Z,5.30
2022-12-18T00:57:01.861Z,6.10
2022-12-18T00:58:01.445Z,6.10
2022-12-18T00:59:01.480Z,6.00
2022-12-18T01:00:02.511Z,6.50
2022-12-18T01:01:03.967Z,5.60
2022-12-18T01:02:01.642Z,5.00
2022-12-18T01:03:02.550Z,5.20
2022-12-18T01:04:03.217Z,6.00
2022-12-18T01:05:01.462Z,6.60
2022-12-18T01:06:06.770Z,5.90
2022-12-18T01:07:01.465Z,6.70
2022-12-18T01:08:01.721Z,5.70
2022-12-18T01:09:01.884Z,5.40
2022-12-18T01:10:01.457Z,6.30
2022-12-18T01:11:07.256Z,4.70
2022-12-18T01:12:01.825Z,6.43
2022-12-18T01:13:01.465Z,5.97
2022-12-18T01:14:01.486Z,5.67
2022-12-18T01:15:01.953Z,6.27
2022-12-18T01:16:02.175Z,5.93
2022-12-18T01:17:01.790Z,5.73
2022-12-18T01:18:01.444Z,5.10
2022-12-18T01:19:02.068Z,5.93
2022-12-18T01:20:01.537Z,4.60
2022-12-18T01:21:06.070Z,6.07
2022-12-18T01:22:01.798Z,5.97
2022-12-18T01:23:01.474Z,5.37
2022-12-18T01:24:01.798Z,5.83
2022-12-18T01:25:03.264Z,4.50
2022-12-18T01:26:05.664Z,5.90
2022-12-18T01:27:01.822Z,6.03
2022-12-18T01:28:02.022Z,5.10
2022-12-18T01:29:01.451Z,5.60
2022-12-18T01:30:02.669Z,5.80
2022-12-18T01:31:12.610Z,4.60
2022-12-18T01:32:01.521Z,6.00
2022-12-18T01:33:01.470Z,6.57
2022-12-18T01:34:01.904Z,7.40
2022-12-18T01:35:01.684Z,6.00
2022-12-18T01:36:01.450Z,7.40
2022-12-18T01:37:03.223Z,6.10
2022-12-18T01:38:01.790Z,6.33
2022-12-18T01:39:03.797Z,5.97
2022-12-18T01:40:01.699Z,6.33
2022-12-18T01:41:02.400Z,6.53
2022-12-18T01:42:03.194Z,4.43
2022-12-18T01:43:01.823Z,6.10
2022-12-18T01:44:01.463Z,6.20
2022-12-18T01:45:04.705Z,5.43
2022-12-18T01:46:01.494Z,5.93
2022-12-18T01:47:01.608Z,5.17
2022-12-18T01:48:05.395Z,3.87
2022-12-18T01:49:02.295Z,5.77
2022-12-18T01:50:06.657Z,5.03
2022-12-18T01:51:01.734Z,5.70
2022-12-18T01:52:02.105Z,5.10
2022-12-18T01:53:10.170Z,3.80
2022-12-18T01:54:01.473Z,8.50
2022-12-18T01:55:04.165Z,5.43
2022-12-18T01:56:01.862Z,6.27
2022-12-18T01:57:01.858Z,6.00
2022-12-18T01:58:02.294Z,5.90
2022-12-18T01:59:05.115Z,3.43
2022-12-18T02:00:05.799Z,5.00
2022-12-18T02:01:01.891Z,5.67
2022-12-18T02:02:03.525Z,5.97
2022-12-18T02:03:02.304Z,5.07
2022-12-18T02:04:19.399Z,5.30
2022-12-18T02:05:03.005Z,5.00
2022-12-18T02:06:10.469Z,4.80
2022-12-18T02:07:11.579Z,6.30
2022-12-18T02:08:10.406Z,5.70
2022-12-18T02:09:11.386Z,5.53
2022-12-18T02:10:07.545Z,5.93
2022-12-18T02:11:07.540Z,5.97
2022-12-18T02:12:10.265Z,5.23
2022-12-18T02:13:10.975Z,5.83
2022-12-18T02:14:12.742Z,5.50
2022-12-18T02:15:09.860Z,6.00
2022-12-18T02:16:08.245Z,6.30
2022-12-18T02:17:07.521Z,5.10
2022-12-18T02:18:07.991Z,6.10
2022-12-18T02:19:15.424Z,6.40
2022-12-18T02:20:12.449Z,5.10
2022-12-18T02:21:11.822Z,5.00
2022-12-18T02:22:13.046Z,5.10
2022-12-18T02:23:18.046Z,6.20
2022-12-18T02:24:17.746Z,5.90
2022-12-18T02:25:12.687Z,6.50
2022-12-18T02:26:07.877Z,7.00
2022-12-18T02:27:05.647Z,4.50
2022-12-18T02:28:07.306Z,4.80
2022-12-18T02:29:07.123Z,5.50
2022-12-18T02:30:04.319Z,6.00
2022-12-18T02:31:06.201Z,5.10
2022-12-18T02:32:06.152Z,6.90
2022-12-18T02:33:04.988Z,6.10
2022-12-18T02:34:04.910Z,5.20
2022-12-18T02:35:04.590Z,5.30
2022-12-18T02:36:04.647Z,6.30
2022-12-18T02:37:06.113Z,5.60
2022-12-18T02:38:03.377Z,5.60
2022-12-18T02:39:03.491Z,6.03
2022-12-18T02:40:04.886Z,6.47
2022-12-18T02:41:04.352Z,5.70
2022-12-18T02:42:02.213Z,6.93
2022-12-18T02:43:10.575Z,6.50
2022-12-18T02:44:07.129Z,6.40
2022-12-18T02:45:01.805Z,5.77
2022-12-18T02:46:21.114Z,6.87
2022-12-18T02:47:02.660Z,7.20
2022-12-18T02:48:02.001Z,5.73
2022-12-18T02:49:11.688Z,6.03
2022-12-18T02:50:14.836Z,6.17
2022-12-18T02:51:08.649Z,7.40
2022-12-18T02:52:07.973Z,6.33
2022-12-18T02:53:11.053Z,5.40
2022-12-18T02:54:10.461Z,5.67
2022-12-18T02:55:13.424Z,6.77
2022-12-18T02:56:07.621Z,5.87
2022-12-18T02:57:10.197Z,5.53
2022-12-18T02:58:09.119Z,6.90
2022-12-18T02:59:06.560Z,6.80
2022-12-18T03:00:08.002Z,6.70
2022-12-18T03:01:09.831Z,5.83
2022-12-18T03:02:09.969Z,5.20
2022-12-18T03:03:09.820Z,6.70
2022-12-18T03:04:07.303Z,6.20
2022-12-18T03:05:09.617Z,6.53
2022-12-18T03:06:06.350Z,6.50
2022-12-18T03:07:08.026Z,7.00
2022-12-18T03:08:06.967Z,5.90
2022-12-18T03:09:09.216Z,7.00
2022-12-18T03:10:03.200Z,6.40
2022-12-18T03:11:04.874Z,7.00
2022-12-18T03:12:10.590Z,7.30
2022-12-18T03:13:06.292Z,6.80
2022-12-18T03:14:04.128Z,7.80
2022-12-18T03:15:11.052Z,6.90
2022-12-18T03:16:05.500Z,7.50
2022-12-18T03:17:06.388Z,7.10
2022-12-18T03:18:07.913Z,7.40
2022-12-18T03:19:07.040Z,7.40
2022-12-18T03:20:07.744Z,6.20
2022-12-18T03:21:06.134Z,6.50
2022-12-18T03:22:06.248Z,6.90
2022-12-18T03:23:07.329Z,6.10
2022-12-18T03:24:06.181Z,7.20
2022-12-18T03:25:06.047Z,7.00
2022-12-18T03:26:07.693Z,7.00
2022-12-18T03:27:05.565Z,6.60
2022-12-18T03:28:06.436Z,6.53
2022-12-18T03:29:06.549Z,7.10
2022-12-18T03:30:05.607Z,7.10
2022-12-18T03:31:05.110Z,6.40
2022-12-18T03:32:05.986Z,6.80
2022-12-18T03:33:08.760Z,6.10
2022-12-18T03:34:09.184Z,6.70
2022-12-18T03:35:05.922Z,7.20
2022-12-18T03:36:01.787Z,7.30
2022-12-18T03:37:02.329Z,7.00
2022-12-18T03:38:02.055Z,7.10
2022-12-18T03:39:01.479Z,6.30
2022-12-18T03:40:02.101Z,7.00
2022-12-18T03:41:10.708Z,6.70
2022-12-18T03:42:06.782Z,7.00
2022-12-18T03:43:09.030Z,6.60
2022-12-18T03:44:10.939Z,6.50
2022-12-18T03:45:10.284Z,7.00
2022-12-18T03:46:07.088Z,8.90
2022-12-18T03:47:08.097Z,7.20
2022-12-18T03:48:07.606Z,7.50
2022-12-18T03:49:09.870Z,5.70
2022-12-18T03:50:12.954Z,7.00
2022-12-18T03:51:08.149Z,7.67
2022-12-18T03:52:06.292Z,6.57
2022-12-18T03:53:17.480Z,5.80
2022-12-18T03:54:04.184Z,6.70
2022-12-18T03:55:03.635Z,7.00
2022-12-18T03:56:04.071Z,5.90
2022-12-18T03:57:09.957Z,6.50
2022-12-18T03:58:03.680Z,6.63
2022-12-18T03:59:04.944Z,5.90
2022-12-18T04:00:06.081Z,7.77
2022-12-18T04:01:06.037Z,6.00
2022-12-18T04:02:04.340Z,6.90
2022-12-18T04:03:03.598Z,6.10
2022-12-18T04:04:03.858Z,6.10
2022-12-18T04:05:07.488Z,6.90
2022-12-18T04:06:03.085Z,7.13
2022-12-18T04:07:03.062Z,7.20
2022-12-18T04:08:02.300Z,6.83
2022-12-18T04:09:01.927Z,7.87
2022-12-18T04:10:03.592Z,6.60
2022-12-18T04:11:02.570Z,7.00
2022-12-18T04:12:01.461Z,7.00
2022-12-18T04:13:01.829Z,6.80
2022-12-18T04:14:05.856Z,7.20
2022-12-18T04:15:02.073Z,6.90
2022-12-18T04:16:01.654Z,6.90
2022-12-18T04:17:01.938Z,6.17
2022-12-18T04:18:01.466Z,6.00
2022-12-18T04:19:01.546Z,5.90
2022-12-18T04:20:01.808Z,6.40
2022-12-18T04:21:02.490Z,5.60
2022-12-18T04:22:01.462Z,7.20
2022-12-18T04:23:01.476Z,6.20
2022-12-18T04:24:01.819Z,6.20
2022-12-18T04:25:01.464Z,5.90
2022-12-18T04:26:01.945Z,6.47
2022-12-18T04:27:01.554Z,6.70
2022-12-18T04:28:01.463Z,5.50
2022-12-18T04:29:01.672Z,5.60
2022-12-18T04:30:01.819Z,6.50
2022-12-18T04:31:01.569Z,5.30
2022-12-18T04:32:01.458Z,6.00
2022-12-18T04:33:01.478Z,5.53
2022-12-18T04:34:01.645Z,5.50
2022-12-18T04:35:01.693Z,6.00
2022-12-18T04:36:01.549Z,6.20
2022-12-18T04:37:02.223Z,6.00
2022-12-18T04:38:01.473Z,6.00
2022-12-18T04:39:01.462Z,5.80
2022-12-18T04:40:01.457Z,6.90
2022-12-18T04:41:01.451Z,5.90
2022-12-18T04:42:01.842Z,6.30
2022-12-18T04:43:02.042Z,6.00
2022-12-18T04:44:01.467Z,5.80
2022-12-18T04:45:01.474Z,5.00
2022-12-18T04:46:02.340Z,5.00
2022-12-18T04:47:01.490Z,6.80
2022-12-18T04:48:03.526Z,6.10
2022-12-18T04:49:01.835Z,5.20
2022-12-18T04:50:01.452Z,6.47
2022-12-18T04:51:01.516Z,5.90
2022-12-18T04:52:01.815Z,4.90
2022-12-18T04:53:01.454Z,5.90
2022-12-18T04:54:01.471Z,5.50
2022-12-18T04:55:01.820Z,6.00
2022-12-18T04:56:03.478Z,5.50
2022-12-18T04:57:01.466Z,5.80
2022-12-18T04:58:01.785Z,6.43
2022-12-18T04:59:01.605Z,5.70
2022-12-18T05:00:03.175Z,6.10
2022-12-18T05:01:01.845Z,5.20
2022-12-18T05:02:01.912Z,6.20
2022-12-18T05:03:02.875Z,5.00
2022-12-18T05:04:01.760Z,6.50
2022-12-18T05:05:02.151Z,6.70
2022-12-18T05:06:02.287Z,6.20
2022-12-18T05:07:01.485Z,5.40
2022-12-18T05:08:01.541Z,6.40
2022-12-18T05:09:01.827Z,5.90
2022-12-18T05:10:03.414Z,6.30
2022-12-18T05:11:03.834Z,7.10
2022-12-18T05:12:01.489Z,6.30
2022-12-18T05:13:01.571Z,6.40
2022-12-18T05:14:01.883Z,6.40
2022-12-18T05:15:01.457Z,6.90
2022-12-18T05:16:02.838Z,6.50
2022-12-18T05:17:01.562Z,7.03
2022-12-18T05:18:02.551Z,6.20
2022-12-18T05:19:01.470Z,8.20
2022-12-18T05:20:01.464Z,7.33
2022-12-18T05:21:02.162Z,6.70
2022-12-18T05:22:02.235Z,6.60
2022-12-18T05:23:01.962Z,6.50
2022-12-18T05:24:01.825Z,6.70
2022-12-18T05:25:01.810Z,6.60
2022-12-18T05:26:04.829Z,7.20
2022-12-18T05:27:01.624Z,6.90
2022-12-18T05:28:01.469Z,8.50
2022-12-18T05:29:01.821Z,6.70
2022-12-18T05:30:01.812Z,6.60
2022-12-18T05:31:04.642Z,6.60
2022-12-18T05:32:01.723Z,6.40
2022-12-18T05:33:01.804Z,6.10
2022-12-18T05:34:01.463Z,7.30
2022-12-18T05:35:02.345Z,5.30
2022-12-18T05:36:04.095Z,6.40
2022-12-18T05:37:01.794Z,6.70
2022-12-18T05:38:01.453Z,6.20
2022-12-18T05:39:01.517Z,5.00
2022-12-18T05:40:02.364Z,7.70
2022-12-18T05:41:02.492Z,6.70
2022-12-18T05:42:01.471Z,8.00
2022-12-18T05:43:01.684Z,6.90
2022-12-18T05:44:01.645Z,7.90
2022-12-18T05:45:01.451Z,6.30
2022-12-18T05:46:04.488Z,5.90
2022-12-18T05:47:01.869Z,6.60
2022-12-18T05:48:01.447Z,8.00
2022-12-18T05:49:01.971Z,6.90
2022-12-18T05:50:01.471Z,8.00
2022-12-18T05:51:06.342Z,6.60
2022-12-18T05:52:02.199Z,6.90
2022-12-18T05:53:01.472Z,6.23
2022-12-18T05:54:01.828Z,5.00
2022-12-18T05:55:01.975Z,6.00
2022-12-18T05:56:03.017Z,6.60
2022-12-18T05:57:01.488Z,6.10
2022-12-18T05:58:01.821Z,6.10
2022-12-18T05:59:01.464Z,6.10
2022-12-18T06:00:01.525Z,5.40
2022-12-18T06:01:07.873Z,5.80
2022-12-18T06:02:01.969Z,5.60
2022-12-18T06:03:02.533Z,6.40
2022-12-18T06:04:01.564Z,6.10
2022-12-18T06:05:01.989Z,8.00
2022-12-18T06:06:01.500Z,6.10
2022-12-18T06:07:04.392Z,6.80
2022-12-18T06:08:01.614Z,7.10
2022-12-18T06:09:01.523Z,6.20
2022-12-18T06:10:01.797Z,6.50
2022-12-18T06:11:01.455Z,6.90
2022-12-18T06:12:01.769Z,6.80
2022-12-18T06:13:01.838Z,6.20
2022-12-18T06:14:03.043Z,5.40
2022-12-18T06:15:02.288Z,6.90
2022-12-18T06:16:02.538Z,5.80
2022-12-18T06:17:01.449Z,5.90
2022-12-18T06:18:01.795Z,6.30
2022-12-18T06:19:03.827Z,6.50
2022-12-18T06:20:01.866Z,6.60
2022-12-18T06:21:01.794Z,6.90
2022-12-18T06:22:01.459Z,7.00
2022-12-18T06:23:01.946Z,6.20
2022-12-18T06:24:01.462Z,7.00
2022-12-18T06:25:01.531Z,5.80
2022-12-18T06:26:04.592Z,6.70
2022-12-18T06:27:01.692Z,7.20
2022-12-18T06:28:01.455Z,6.40
2022-12-18T06:29:01.482Z,6.50
2022-12-18T06:30:02.237Z,6.50
2022-12-18T06:31:03.912Z,6.20
2022-12-18T06:32:01.493Z,6.80
2022-12-18T06:33:01.455Z,5.90
2022-12-18T06:34:03.665Z,7.00
2022-12-18T06:35:01.820Z,7.10
2022-12-18T06:36:04.060Z,6.90
2022-12-18T06:37:01.784Z,6.20
2022-12-18T06:38:02.374Z,6.40
2022-12-18T06:39:01.859Z,8.20
2022-12-18T06:40:01.457Z,6.60
2022-12-18T06:41:06.919Z,5.80
2022-12-18T06:42:01.451Z,6.70
2022-12-18T06:43:01.459Z,5.80
2022-12-18T06:44:01.487Z,6.53
2022-12-18T06:45:01.466Z,7.00
2022-12-18T06:46:02.641Z,5.50
2022-12-18T06:47:01.447Z,6.20
2022-12-18T06:48:01.676Z,6.20
2022-12-18T06:49:02.291Z,6.50
2022-12-18T06:50:01.487Z,6.80
2022-12-18T06:51:02.791Z,5.30
2022-12-18T06:52:01.448Z,5.30
2022-12-18T06:53:01.474Z,6.20
2022-12-18T06:54:01.549Z,7.50
2022-12-18T06:55:01.495Z,6.63
2022-12-18T06:56:09.241Z,4.80
2022-12-18T06:57:01.461Z,8.00
2022-12-18T06:58:01.960Z,6.40
2022-12-18T06:59:01.966Z,5.10
2022-12-18T07:00:02.083Z,5.70
2022-12-18T07:01:02.852Z,5.50
2022-12-18T07:02:01.868Z,6.10
2022-12-18T07:03:02.064Z,6.20
2022-12-18T07:04:01.474Z,5.70
2022-12-18T07:05:07.440Z,5.40
2022-12-18T07:06:02.811Z,6.60
2022-12-18T07:07:01.794Z,5.70
2022-12-18T07:08:01.449Z,4.40
2022-12-18T07:09:01.462Z,5.40
2022-12-18T07:10:01.834Z,5.60
2022-12-18T07:11:04.238Z,5.20
2022-12-18T07:12:01.895Z,6.00
2022-12-18T07:13:01.495Z,6.50
2022-12-18T07:14:01.542Z,5.20
2022-12-18T07:15:01.602Z,5.70
2022-12-18T07:16:10.891Z,6.00
2022-12-18T07:17:01.956Z,4.70
2022-12-18T07:18:01.942Z,5.40
2022-12-18T07:19:01.479Z,5.90
2022-12-18T07:20:01.485Z,6.20
2022-12-18T07:21:04.137Z,6.40
2022-12-18T07:22:02.355Z,5.70
2022-12-18T07:23:02.349Z,3.37
2022-12-18T07:24:01.451Z,4.30
2022-12-18T07:25:01.474Z,4.67
2022-12-18T07:26:02.927Z,4.73
2022-12-18T07:27:01.962Z,6.27
2022-12-18T07:28:02.258Z,5.63
2022-12-18T07:29:01.820Z,5.17
2022-12-18T07:30:01.509Z,6.33
2022-12-18T07:31:03.851Z,6.00
2022-12-18T07:32:01.581Z,4.97
2022-12-18T07:33:01.567Z,4.83
2022-12-18T07:34:01.829Z,5.50
2022-12-18T07:35:01.853Z,4.23
2022-12-18T07:36:03.669Z,5.30
2022-12-18T07:37:01.926Z,4.67
2022-12-18T07:38:01.445Z,3.73
2022-12-18T07:39:01.797Z,4.70
2022-12-18T07:40:01.516Z,4.37
2022-12-18T07:41:02.551Z,4.60
2022-12-18T07:42:01.797Z,5.10
2022-12-18T07:43:01.845Z,4.13
2022-12-18T07:44:01.800Z,5.57
2022-12-18T07:45:02.572Z,4.20
2022-12-18T07:46:01.560Z,4.33
2022-12-18T07:47:01.836Z,4.90
2022-12-18T07:48:01.452Z,5.40
2022-12-18T07:49:01.458Z,4.93
2022-12-18T07:50:01.485Z,5.20
2022-12-18T07:51:03.117Z,5.00
2022-12-18T07:52:01.458Z,4.50
2022-12-18T07:53:01.463Z,4.30
2022-12-18T07:54:01.451Z,4.57
2022-12-18T07:55:02.664Z,3.60
2022-12-18T07:56:26.534Z,5.67
2022-12-18T07:57:01.607Z,4.83
2022-12-18T07:58:02.279Z,3.93
2022-12-18T07:59:01.537Z,4.77
2022-12-18T08:00:01.844Z,4.17
2022-12-18T08:01:04.491Z,4.87
2022-12-18T08:02:01.889Z,4.00
2022-12-18T08:03:02.104Z,4.17
2022-12-18T08:04:01.461Z,4.20
2022-12-18T08:05:01.450Z,3.90
2022-12-18T08:06:02.364Z,5.10
2022-12-18T08:07:01.551Z,5.20
2022-12-18T08:08:01.789Z,4.20
2022-12-18T08:09:01.464Z,4.30
2022-12-18T08:10:01.854Z,4.90
2022-12-18T08:11:02.290Z,5.20
2022-12-18T08:12:01.458Z,4.60
2022-12-18T08:13:04.859Z,4.53
2022-12-18T08:14:01.824Z,4.47
2022-12-18T08:15:01.469Z,4.10
2022-12-18T08:16:04.207Z,4.23
2022-12-18T08:17:02.033Z,4.27
2022-12-18T08:18:01.443Z,4.93
2022-12-18T08:19:02.240Z,3.13
2022-12-18T08:20:01.488Z,3.10
2022-12-18T08:21:09.427Z,4.00
2022-12-18T08:22:01.778Z,4.30
2022-12-18T08:23:01.820Z,3.80
2022-12-18T08:24:02.356Z,4.20
2022-12-18T08:25:01.967Z,4.10
2022-12-18T08:26:01.825Z,4.20
2022-12-18T08:27:29.755Z,4.00
2022-12-18T08:28:01.596Z,4.20
2022-12-18T08:29:01.963Z,4.30
2022-12-18T08:30:01.744Z,4.70
2022-12-18T08:31:01.534Z,4.40
2022-12-18T08:32:01.522Z,4.60
2022-12-18T08:33:01.463Z,4.40
2022-12-18T08:34:01.853Z,4.60
2022-12-18T08:35:01.818Z,3.53
2022-12-18T08:36:02.741Z,3.53
2022-12-18T08:37:01.798Z,3.50
2022-12-18T08:38:01.446Z,4.50
2022-12-18T08:39:01.820Z,3.20
2022-12-18T08:40:02.342Z,3.77
2022-12-18T08:41:03.501Z,3.57
2022-12-18T08:42:04.191Z,2.97
2022-12-18T08:43:01.467Z,3.40
2022-12-18T08:44:01.476Z,3.40
2022-12-18T08:45:02.149Z,4.00
2022-12-18T08:46:01.853Z,3.60
2022-12-18T08:47:01.803Z,4.17
2022-12-18T08:48:01.465Z,3.97
2022-12-18T08:49:02.409Z,3.57
2022-12-18T08:50:02.453Z,3.97
2022-12-18T08:51:01.891Z,4.33
2022-12-18T08:52:01.970Z,3.97
2022-12-18T08:53:01.843Z,4.37
2022-12-18T08:54:02.390Z,4.30
2022-12-18T08:55:01.787Z,3.67
2022-12-18T08:56:02.012Z,3.87
2022-12-18T08:57:01.836Z,3.80
2022-12-18T08:58:01.469Z,3.63
2022-12-18T08:59:02.117Z,3.67
2022-12-18T09:00:01.443Z,3.13
2022-12-18T09:01:02.707Z,3.57
2022-12-18T09:02:01.995Z,3.80
2022-12-18T09:03:01.584Z,3.73
2022-12-18T09:04:01.930Z,3.60
2022-12-18T09:05:01.788Z,3.10
2022-12-18T09:06:01.827Z,3.00
2022-12-18T09:07:01.819Z,3.60
2022-12-18T09:08:01.484Z,3.37
2022-12-18T09:09:02.016Z,3.13
2022-12-18T09:10:01.482Z,3.40
2022-12-18T09:11:03.130Z,3.37
2022-12-18T09:12:01.704Z,2.33
2022-12-18T09:13:01.456Z,3.30
2022-12-18T09:14:02.187Z,2.53
2022-12-18T09:15:01.835Z,3.97
2022-12-18T09:16:04.016Z,3.13
2022-12-18T09:17:02.020Z,4.00
2022-12-18T09:18:01.463Z,3.00
2022-12-18T09:19:04.368Z,3.00
2022-12-18T09:20:01.793Z,3.30
2022-12-18T09:21:09.333Z,3.00
2022-12-18T09:22:01.450Z,3.10
2022-12-18T09:23:02.177Z,3.37
2022-12-18T09:24:01.846Z,2.87
2022-12-18T09:25:01.812Z,2.23
2022-12-18T09:26:01.802Z,3.53
2022-12-18T09:27:01.961Z,3.10
2022-12-18T09:28:02.546Z,3.20
2022-12-18T09:29:02.736Z,2.30
2022-12-18T09:30:03.278Z,2.80
2022-12-18T09:31:06.001Z,3.07
2022-12-18T09:32:01.462Z,2.00
2022-12-18T09:33:01.495Z,2.53
2022-12-18T09:34:02.081Z,3.00
2022-12-18T09:35:01.826Z,2.43
2022-12-18T09:36:03.325Z,3.60
2022-12-18T09:37:01.463Z,1.97
2022-12-18T09:38:01.452Z,2.83
2022-12-18T09:39:07.863Z,2.87
2022-12-18T09:40:01.445Z,3.03
2022-12-18T09:41:06.815Z,3.00
2022-12-18T09:42:01.848Z,3.40
2022-12-18T09:43:05.185Z,3.00
2022-12-18T09:44:11.465Z,2.07
2022-12-18T09:45:03.772Z,3.17
2022-12-18T09:46:06.564Z,3.73
2022-12-18T09:47:10.133Z,3.50
2022-12-18T09:48:02.359Z,3.27
2022-12-18T09:49:05.332Z,3.40
2022-12-18T09:50:17.267Z,3.10
2022-12-18T09:51:11.651Z,2.90
2022-12-18T09:52:08.652Z,3.00
2022-12-18T09:53:06.861Z,2.67
2022-12-18T09:54:07.084Z,2.37
2022-12-18T09:55:06.669Z,3.77
2022-12-18T09:56:04.368Z,3.07
2022-12-18T09:57:02.200Z,3.60
2022-12-18T09:58:11.753Z,3.73
2022-12-18T09:59:04.273Z,3.00
2022-12-18T10:00:11.773Z,3.20
2022-12-18T10:01:01.992Z,3.23
2022-12-18T10:02:15.540Z,2.40
2022-12-18T10:03:09.141Z,2.87
2022-12-18T10:04:01.523Z,4.03
2022-12-18T10:05:08.369Z,3.13
2022-12-18T10:06:11.139Z,3.40
2022-12-18T10:07:11.626Z,3.83
2022-12-18T10:08:11.249Z,3.00
2022-12-18T10:09:11.585Z,3.20
2022-12-18T10:10:11.809Z,3.80
2022-12-18T10:11:12.341Z,3.90
2022-12-18T10:12:08.697Z,3.13
2022-12-18T10:13:12.671Z,3.10
2022-12-18T10:14:10.053Z,2.17
2022-12-18T10:15:10.658Z,3.53
2022-12-18T10:16:12.904Z,3.57
2022-12-18T10:17:14.092Z,3.13
2022-12-18T10:18:18.732Z,3.47
2022-12-18T10:19:12.671Z,3.30
2022-12-18T10:20:10.759Z,4.37
2022-12-18T10:21:10.686Z,3.53
2022-12-18T10:22:11.415Z,3.83
2022-12-18T10:23:10.734Z,3.77
2022-12-18T10:24:16.187Z,3.67
2022-12-18T10:25:12.899Z,2.77
2022-12-18T10:26:04.502Z,3.33
2022-12-18T10:27:14.182Z,4.00
2022-12-18T10:28:12.745Z,3.07
2022-12-18T10:29:05.568Z,3.10
2022-12-18T10:30:11.562Z,3.33
2022-12-18T10:31:02.155Z,3.73
2022-12-18T10:32:01.469Z,3.90
2022-12-18T10:33:02.284Z,3.97
2022-12-18T10:34:01.455Z,3.00
2022-12-18T10:35:01.849Z,4.00
2022-12-18T10:36:01.458Z,3.20
2022-12-18T10:37:06.559Z,3.90
2022-12-18T10:38:06.807Z,4.17
2022-12-18T10:39:15.614Z,3.63
2022-12-18T10:40:09.478Z,4.00
2022-12-18T10:41:03.701Z,3.23
2022-12-18T10:42:11.680Z,3.90
2022-12-18T10:43:04.757Z,3.63
2022-12-18T10:44:14.980Z,4.30
2022-12-18T10:45:04.180Z,3.50
2022-12-18T10:46:12.275Z,3.47
2022-12-18T10:47:11.704Z,3.73
2022-12-18T10:48:01.869Z,4.70
2022-12-18T10:49:01.853Z,3.87
2022-12-18T10:50:01.989Z,3.47
2022-12-18T10:51:12.674Z,3.93
2022-12-18T10:52:12.917Z,4.63
2022-12-18T10:53:04.763Z,3.93
2022-12-18T10:54:04.333Z,4.00
2022-12-18T10:55:04.538Z,4.80
2022-12-18T10:56:04.635Z,4.00
2022-12-18T10:57:15.270Z,3.70
2022-12-18T10:58:26.323Z,4.00
2022-12-18T10:59:04.176Z,4.20
2022-12-18T11:00:20.874Z,3.50
2022-12-18T11:01:07.697Z,4.60
2022-12-18T11:02:01.981Z,4.00
2022-12-18T11:03:01.864Z,4.30
2022-12-18T11:04:08.396Z,3.40
2022-12-18T11:05:03.342Z,4.30
2022-12-18T11:06:06.281Z,4.40
2022-12-18T11:07:04.833Z,5.00
2022-12-18T11:08:02.072Z,4.60
2022-12-18T11:09:09.358Z,3.80
2022-12-18T11:10:02.545Z,3.40
2022-12-18T11:11:02.178Z,3.90
2022-12-18T11:12:04.369Z,4.00
2022-12-18T11:13:15.469Z,4.00
2022-12-18T11:14:04.246Z,4.20
2022-12-18T11:15:01.617Z,3.60
2022-12-18T11:16:02.072Z,4.50
2022-12-18T11:17:25.825Z,4.50
2022-12-18T11:18:01.535Z,4.90
2022-12-18T11:19:14.558Z,4.90
2022-12-18T11:20:04.472Z,4.60
2022-12-18T11:21:08.145Z,3.70
2022-12-18T11:22:13.059Z,4.10
2022-12-18T11:23:05.142Z,4.00
2022-12-18T11:24:01.689Z,4.20
2022-12-18T11:25:34.469Z,3.80
2022-12-18T11:26:04.438Z,4.00
2022-12-18T11:27:04.545Z,3.20
2022-12-18T11:28:04.598Z,4.10
2022-12-18T11:29:09.840Z,4.00
2022-12-18T11:30:09.476Z,4.10
2022-12-18T11:31:17.262Z,4.40
2022-12-18T11:32:20.869Z,3.80
2022-12-18T11:33:05.662Z,4.60
2022-12-18T11:34:29.238Z,5.00
2022-12-18T11:35:14.950Z,4.00
2022-12-18T11:36:05.937Z,3.40
2022-12-18T11:37:03.803Z,4.90
2022-12-18T11:38:10.535Z,4.60
2022-12-18T11:39:09.377Z,5.40
2022-12-18T11:40:09.752Z,5.00
2022-12-18T11:41:07.528Z,3.90
2022-12-18T11:42:09.057Z,5.70
2022-12-18T11:43:09.917Z,4.70
2022-12-18T11:44:07.201Z,4.80
2022-12-18T11:45:17.872Z,4.20
2022-12-18T11:46:07.289Z,4.50
2022-12-18T11:47:09.832Z,4.30
2022-12-18T11:48:09.702Z,4.70
2022-12-18T11:49:07.872Z,4.90
2022-12-18T11:50:12.150Z,3.97
2022-12-18T11:51:06.193Z,4.00
2022-12-18T11:52:11.135Z,4.70
2022-12-18T11:53:05.580Z,5.00
2022-12-18T11:54:10.130Z,5.10
2022-12-18T11:55:11.703Z,6.00
2022-12-18T11:56:17.525Z,5.10
2022-12-18T11:57:11.633Z,5.20
2022-12-18T11:58:10.622Z,4.30
2022-12-18T11:59:17.555Z,5.20
2022-12-18T12:00:05.135Z,5.50
2022-12-18T12:01:12.948Z,4.90
2022-12-18T12:02:20.776Z,4.10
2022-12-18T12:03:20.570Z,4.70
2022-12-18T12:04:18.708Z,4.80
2022-12-18T12:05:19.722Z,4.30
2022-12-18T12:06:10.412Z,5.50
2022-12-18T12:07:16.587Z,5.00
2022-12-18T12:08:10.327Z,4.90
2022-12-18T12:09:10.080Z,3.63
2022-12-18T12:10:12.579Z,3.70
2022-12-18T12:11:13.666Z,5.23
2022-12-18T12:12:20.667Z,3.73
2022-12-18T12:13:20.875Z,4.90
2022-12-18T12:14:15.190Z,4.80
2022-12-18T12:15:13.248Z,3.60
2022-12-18T12:16:16.008Z,4.57
2022-12-18T12:17:10.410Z,4.20
2022-12-18T12:18:11.438Z,5.20
2022-12-18T12:19:20.596Z,4.90
2022-12-18T12:20:13.282Z,5.10
2022-12-18T12:21:11.074Z,4.90
2022-12-18T12:22:12.797Z,4.40
2022-12-18T12:23:11.627Z,3.23
2022-12-18T12:24:19.908Z,4.50
2022-12-18T12:25:14.436Z,6.90
2022-12-18T12:26:06.300Z,4.40
2022-12-18T12:27:06.996Z,4.90
2022-12-18T12:28:15.806Z,4.70
2022-12-18T12:29:10.642Z,4.60
2022-12-18T12:30:14.859Z,4.00
2022-12-18T12:31:05.867Z,3.30
2022-12-18T12:32:11.553Z,4.10
2022-12-18T12:33:12.379Z,4.77
2022-12-18T12:34:11.422Z,5.53
2022-12-18T12:35:11.300Z,5.10
2022-12-18T12:36:13.487Z,4.10
2022-12-18T12:37:16.107Z,3.37
2022-12-18T12:38:09.484Z,3.67
2022-12-18T12:39:08.439Z,5.00
2022-12-18T12:40:11.004Z,4.10
2022-12-18T12:41:05.558Z,4.57
2022-12-18T12:42:04.398Z,5.53
2022-12-18T12:43:10.488Z,4.67
2022-12-18T12:44:07.126Z,5.60
2022-12-18T12:45:07.115Z,4.47
2022-12-18T12:46:05.575Z,4.70
2022-12-18T12:47:11.556Z,4.80
2022-12-18T12:48:04.468Z,3.63
2022-12-18T12:49:03.787Z,3.90
2022-12-18T12:50:11.599Z,4.97
2022-12-18T12:51:09.580Z,5.10
2022-12-18T12:52:12.666Z,4.80
2022-12-18T12:53:06.156Z,4.63
2022-12-18T12:54:05.511Z,5.80
2022-12-18T12:55:04.622Z,4.63
2022-12-18T12:56:03.435Z,4.83
2022-12-18T12:57:09.230Z,4.57
2022-12-18T12:58:08.478Z,4.00
2022-12-18T12:59:12.970Z,4.10
2022-12-18T13:00:05.654Z,4.93
2022-12-18T13:01:10.286Z,4.27
2022-12-18T13:02:15.975Z,5.00
2022-12-18T13:03:11.638Z,4.90
2022-12-18T13:04:13.318Z,5.47
2022-12-18T13:05:12.427Z,4.57
2022-12-18T13:06:08.209Z,5.00
2022-12-18T13:07:06.902Z,3.57
2022-12-18T13:08:07.226Z,5.10
2022-12-18T13:09:02.748Z,4.70
2022-12-18T13:10:13.504Z,5.07
2022-12-18T13:11:01.958Z,5.17
2022-12-18T13:12:03.805Z,4.83
2022-12-18T13:13:05.486Z,4.33
2022-12-18T13:14:02.297Z,4.97
2022-12-18T13:15:15.760Z,5.00
2022-12-18T13:16:06.582Z,3.37
2022-12-18T13:17:15.504Z,5.27
2022-12-18T13:18:13.689Z,4.87
2022-12-18T13:19:01.506Z,4.33